createdAt,value
2023-01-18T00:00:20.300Z,91.63
2023-01-18T00:02:49.224Z,92.23
2023-01-18T00:05:17.198Z,92.39
2023-01-18T00:07:46.396Z,92.66
2023-01-18T00:10:14.125Z,91.42
2023-01-18T00:12:41.838Z,92.20
2023-01-18T00:15:11.062Z,91.28
2023-01-18T00:17:47.697Z,91.44
2023-01-18T00:20:15.890Z,90.13
2023-01-18T00:22:43.895Z,90.37
2023-01-18T00:25:13.348Z,90.74
2023-01-18T00:27:45.450Z,89.60
2023-01-18T00:30:14.781Z,90.35
2023-01-18T00:32:42.556Z,89.94
2023-01-18T00:35:10.941Z,88.72
2023-01-18T00:37:38.945Z,89.74
2023-01-18T00:40:08.081Z,89.21
2023-01-18T00:42:55.021Z,88.70
2023-01-18T00:45:23.034Z,88.81
2023-01-18T00:47:50.727Z,88.70
2023-01-18T00:50:19.561Z,90.24
2023-01-18T00:52:47.688Z,89.47
2023-01-18T00:55:16.457Z,90.52
2023-01-18T00:57:45.597Z,89.40
2023-01-18T01:00:16.809Z,89.79
2023-01-18T01:02:44.646Z,90.81
2023-01-18T01:05:35.947Z,90.80
2023-01-18T01:08:05.822Z,90.57
2023-01-18T01:10:33.696Z,90.12
2023-01-18T01:13:20.205Z,90.13
2023-01-18T01:16:05.497Z,89.15
2023-01-18T01:18:50.673Z,89.11
2023-01-18T01:21:35.915Z,89.37
2023-01-18T01:24:21.175Z,89.41
2023-01-18T01:26:48.966Z,89.46
2023-01-18T01:29:18.313Z,88.96
2023-01-18T01:31:46.046Z,89.72
2023-01-18T01:34:14.214Z,89.61
2023-01-18T01:36:42.040Z,89.10
2023-01-18T01:39:11.014Z,90.02
2023-01-18T01:41:39.284Z,90.53
2023-01-18T01:44:40.352Z,91.53
2023-01-18T01:47:14.343Z,90.53
2023-01-18T01:49:45.972Z,92.63
2023-01-18T01:52:17.600Z,93.05
2023-01-18T01:54:50.602Z,90.96
2023-01-18T01:57:21.672Z,90.75
2023-01-18T01:59:55.031Z,90.53
2023-01-18T02:02:24.263Z,91.74
2023-01-18T02:04:55.172Z,89.31
2023-01-18T02:07:26.291Z,88.80
2023-01-18T02:09:55.306Z,89.52
2023-01-18T02:12:23.318Z,89.86
2023-01-18T02:14:51.125Z,89.26
2023-01-18T02:17:36.897Z,89.84
2023-01-18T02:20:45.747Z,88.61
2023-01-18T02:23:35.479Z,90.14
2023-01-18T02:26:42.477Z,90.41
2023-01-18T02:29:17.425Z,89.38
2023-01-18T02:31:57.924Z,92.64
2023-01-18T02:34:34.744Z,92.24
2023-01-18T02:37:08.277Z,91.94
2023-01-18T02:39:41.133Z,92.12
2023-01-18T02:42:36.470Z,91.41
2023-01-18T02:45:28.935Z,91.56
2023-01-18T02:47:56.682Z,91.40
2023-01-18T02:50:27.700Z,91.44
2023-01-18T02:52:55.655Z,91.66
2023-01-18T02:55:32.596Z,91.49
2023-01-18T02:58:06.552Z,91.79
2023-01-18T03:00:38.922Z,91.46
2023-01-18T03:03:10.875Z,92.56
2023-01-18T03:05:40.949Z,94.25
2023-01-18T03:08:15.091Z,92.03
2023-01-18T03:10:57.167Z,91.98
2023-01-18T03:13:32.487Z,91.76
2023-01-18T03:16:08.919Z,90.63
2023-01-18T03:19:00.240Z,90.44
2023-01-18T03:21:37.798Z,92.50
2023-01-18T03:24:07.472Z,92.17
2023-01-18T03:26:41.224Z,92.02
2023-01-18T03:29:26.406Z,93.08
2023-01-18T03:32:19.837Z,93.65
2023-01-18T03:34:52.720Z,91.65
2023-01-18T03:37:24.845Z,91.97
2023-01-18T03:39:57.742Z,89.86
2023-01-18T03:42:28.829Z,91.61
2023-01-18T03:45:04.126Z,90.07
2023-01-18T03:47:33.841Z,89.63
2023-01-18T03:50:02.072Z,90.29
2023-01-18T03:52:37.996Z,93.58
2023-01-18T03:55:10.904Z,93.61
2023-01-18T03:57:45.501Z,94.06
2023-01-18T04:00:15.117Z,93.13
2023-01-18T04:02:46.919Z,93.15
2023-01-18T04:05:15.433Z,92.86
2023-01-18T04:07:43.237Z,93.04
2023-01-18T04:10:12.746Z,92.32
2023-01-18T04:12:40.460Z,92.85
2023-01-18T04:15:09.146Z,95.00
2023-01-18T04:17:36.951Z,96.00
2023-01-18T04:20:07.656Z,95.71
2023-01-18T04:22:35.422Z,95.12
2023-01-18T04:25:03.229Z,92.41
2023-01-18T04:27:31.027Z,91.23
2023-01-18T04:29:59.434Z,91.87
2023-01-18T04:32:28.848Z,92.20
2023-01-18T04:34:56.574Z,92.14
2023-01-18T04:37:30.326Z,90.12
2023-01-18T04:39:58.223Z,92.83
2023-01-18T04:42:26.127Z,94.53
2023-01-18T04:44:54.165Z,94.66
2023-01-18T04:47:21.860Z,92.46
2023-01-18T04:49:49.640Z,92.54
2023-01-18T04:52:19.087Z,92.95
2023-01-18T04:54:48.427Z,93.35
2023-01-18T04:57:16.297Z,93.39
2023-01-18T04:59:46.010Z,92.66
2023-01-18T05:02:15.134Z,94.52
2023-01-18T05:04:43.717Z,94.64
2023-01-18T05:07:11.984Z,94.04
2023-01-18T05:09:39.679Z,95.86
2023-01-18T05:12:09.113Z,96.33
2023-01-18T05:14:36.948Z,95.73
2023-01-18T05:17:04.765Z,95.07
2023-01-18T05:19:32.520Z,93.71
2023-01-18T05:22:00.292Z,94.16
2023-01-18T05:24:29.862Z,95.11
2023-01-18T05:26:57.997Z,94.05
2023-01-18T05:29:27.251Z,93.03
2023-01-18T05:31:55.051Z,92.19
2023-01-18T05:34:22.871Z,92.76
2023-01-18T05:36:50.607Z,91.09
2023-01-18T05:39:18.468Z,92.19
2023-01-18T05:41:46.163Z,92.22
2023-01-18T05:44:14.168Z,91.89
2023-01-18T05:46:43.396Z,89.97
2023-01-18T05:49:11.148Z,88.77
2023-01-18T05:51:39.080Z,87.89
2023-01-18T05:54:06.881Z,89.42
2023-01-18T05:56:35.340Z,90.08
2023-01-18T05:59:03.126Z,90.39
2023-01-18T06:01:31.010Z,92.06
2023-01-18T06:04:00.167Z,92.67
2023-01-18T06:06:27.879Z,92.49
2023-01-18T06:08:55.609Z,91.32
2023-01-18T06:11:23.503Z,91.65
2023-01-18T06:13:51.339Z,92.37
2023-01-18T06:16:19.147Z,93.76
2023-01-18T06:18:46.914Z,94.97
2023-01-18T06:21:16.143Z,94.07
2023-01-18T06:23:43.863Z,95.18
2023-01-18T06:26:11.677Z,94.31
2023-01-18T06:28:39.432Z,94.92
2023-01-18T06:31:08.466Z,95.71
2023-01-18T06:33:36.754Z,95.40
2023-01-18T06:36:05.870Z,94.70
2023-01-18T06:38:35.036Z,93.91
2023-01-18T06:41:02.822Z,95.42
2023-01-18T06:43:30.522Z,96.83
2023-01-18T06:45:58.889Z,95.52
2023-01-18T06:48:27.945Z,96.03
2023-01-18T06:50:57.833Z,98.85
2023-01-18T06:53:26.276Z,100.00
2023-01-18T06:55:56.949Z,100.00
2023-01-18T06:58:25.760Z,100.00
2023-01-18T07:00:55.964Z,100.00
2023-01-18T07:03:23.951Z,100.00
2023-01-18T07:05:54.082Z,100.00
2023-01-18T07:08:22.060Z,100.00
2023-01-18T07:10:50.359Z,100.00
2023-01-18T07:13:20.028Z,100.00
2023-01-18T07:15:54.091Z,100.00
2023-01-18T07:18:22.970Z,100.00
2023-01-18T07:20:57.463Z,100.00
2023-01-18T07:23:25.544Z,100.00
2023-01-18T07:26:00.146Z,100.00
2023-01-18T07:28:29.290Z,100.00
2023-01-18T07:30:57.402Z,100.00
2023-01-18T07:33:25.199Z,100.00
2023-01-18T07:35:54.204Z,100.00
2023-01-18T07:38:22.930Z,100.00
2023-01-18T07:40:50.988Z,100.00
2023-01-18T07:43:19.307Z,100.00
2023-01-18T07:45:54.556Z,100.00
2023-01-18T07:48:23.473Z,100.00
2023-01-18T07:50:55.976Z,100.00
2023-01-18T07:53:24.558Z,100.00
2023-01-18T07:55:52.970Z,100.00
2023-01-18T07:58:21.145Z,100.00
2023-01-18T08:00:50.316Z,100.00
2023-01-18T08:03:19.822Z,100.00
2023-01-18T08:05:48.264Z,100.00
2023-01-18T08:08:18.088Z,100.00
2023-01-18T08:10:46.430Z,100.00
2023-01-18T08:13:14.267Z,100.00
2023-01-18T08:15:42.021Z,100.00
2023-01-18T08:18:11.864Z,100.00
2023-01-18T08:20:40.688Z,100.00
2023-01-18T08:23:08.442Z,100.00
2023-01-18T08:25:36.557Z,100.00
2023-01-18T08:28:05.365Z,99.90
2023-01-18T08:30:35.264Z,99.28
2023-01-18T08:33:04.509Z,98.23
2023-01-18T08:35:36.668Z,97.62
2023-01-18T08:38:04.532Z,95.01
2023-01-18T08:40:32.731Z,99.13
2023-01-18T08:43:02.328Z,99.38
2023-01-18T08:45:30.399Z,99.67
2023-01-18T08:47:58.905Z,100.00
2023-01-18T08:50:26.779Z,100.00
2023-01-18T08:52:57.192Z,98.66
2023-01-18T08:55:25.126Z,98.06
2023-01-18T08:57:55.040Z,97.49
2023-01-18T09:00:26.786Z,96.48
2023-01-18T09:02:55.012Z,96.46
2023-01-18T09:05:22.908Z,95.72
2023-01-18T09:07:50.921Z,93.88
2023-01-18T09:10:21.278Z,97.02
2023-01-18T09:12:49.186Z,95.37
2023-01-18T09:15:18.149Z,96.43
2023-01-18T09:17:46.369Z,99.76
2023-01-18T09:20:14.593Z,100.00
2023-01-18T09:22:45.459Z,99.45
2023-01-18T09:25:13.383Z,99.88
2023-01-18T09:27:42.517Z,100.00
2023-01-18T09:30:11.531Z,99.65
2023-01-18T09:32:41.161Z,100.00
2023-01-18T09:35:10.941Z,100.00
2023-01-18T09:37:38.679Z,100.00
2023-01-18T09:40:07.561Z,100.00
2023-01-18T09:42:39.042Z,100.00
2023-01-18T09:45:27.418Z,98.27
2023-01-18T09:48:02.874Z,99.16
2023-01-18T09:50:33.662Z,98.75
2023-01-18T09:53:11.198Z,99.99
2023-01-18T09:55:49.255Z,100.00
2023-01-18T09:58:35.304Z,100.00
2023-01-18T10:01:09.143Z,99.79
2023-01-18T10:03:47.935Z,95.57
2023-01-18T10:06:20.897Z,99.54
2023-01-18T10:08:56.007Z,99.25
2023-01-18T10:11:31.248Z,98.58
2023-01-18T10:14:06.198Z,97.83
2023-01-18T10:16:37.800Z,96.15
2023-01-18T10:19:16.368Z,95.17
2023-01-18T10:21:53.632Z,93.23
2023-01-18T10:24:43.125Z,92.48
2023-01-18T10:27:24.522Z,89.70
2023-01-18T10:30:04.945Z,91.71
2023-01-18T10:32:38.154Z,93.22
2023-01-18T10:35:16.385Z,92.24
2023-01-18T10:37:46.683Z,95.47
2023-01-18T10:40:15.942Z,96.36
2023-01-18T10:42:47.339Z,93.54
2023-01-18T10:45:21.551Z,94.15
2023-01-18T10:47:52.024Z,94.66
2023-01-18T10:50:22.560Z,94.73
2023-01-18T10:52:50.661Z,94.10
2023-01-18T10:55:20.406Z,93.34
2023-01-18T10:57:50.334Z,93.42
2023-01-18T11:00:24.039Z,90.47
2023-01-18T11:02:55.846Z,90.58
2023-01-18T11:05:30.151Z,92.84
2023-01-18T11:08:21.614Z,91.55
2023-01-18T11:10:59.667Z,90.83
2023-01-18T11:13:31.352Z,92.15
2023-01-18T11:16:10.448Z,91.27
2023-01-18T11:18:40.430Z,90.32
2023-01-18T11:21:12.169Z,92.26
2023-01-18T11:23:43.695Z,91.82
2023-01-18T11:26:15.433Z,93.41
2023-01-18T11:28:49.575Z,92.70
2023-01-18T11:31:22.280Z,91.12
2023-01-18T11:33:54.727Z,90.20
2023-01-18T11:36:35.388Z,90.94
2023-01-18T11:39:26.123Z,92.08
2023-01-18T11:42:11.905Z,91.99
2023-01-18T11:44:44.566Z,91.01
2023-01-18T11:47:22.677Z,90.55
2023-01-18T11:49:58.343Z,90.90
2023-01-18T11:52:38.233Z,89.49
2023-01-18T11:55:15.864Z,90.32
2023-01-18T11:57:44.968Z,90.21
2023-01-18T12:00:15.243Z,92.25
2023-01-18T12:03:24.578Z,95.27
2023-01-18T12:05:56.493Z,95.72
2023-01-18T12:08:50.206Z,98.01
2023-01-18T12:11:31.687Z,98.27
2023-01-18T12:14:03.408Z,98.30
2023-01-18T12:16:51.956Z,100.00
2023-01-18T12:19:53.918Z,98.65
2023-01-18T12:23:02.906Z,98.56
2023-01-18T12:25:47.435Z,99.55
2023-01-18T12:28:28.800Z,98.78
2023-01-18T12:31:10.592Z,99.82
2023-01-18T12:33:49.819Z,98.94
2023-01-18T12:36:33.860Z,98.63
2023-01-18T12:39:13.363Z,97.72
2023-01-18T12:41:50.394Z,97.97
2023-01-18T12:44:52.454Z,95.98
2023-01-18T12:47:36.015Z,95.34
2023-01-18T12:50:13.896Z,95.99
2023-01-18T12:52:49.923Z,96.49
2023-01-18T12:55:22.657Z,99.08
2023-01-18T12:57:58.724Z,98.49
2023-01-18T13:00:35.302Z,97.01
2023-01-18T13:03:10.913Z,97.57
2023-01-18T13:05:51.044Z,98.12
2023-01-18T13:08:25.251Z,96.78
2023-01-18T13:10:56.806Z,97.54
2023-01-18T13:13:29.305Z,95.13
2023-01-18T13:16:03.577Z,93.90
2023-01-18T13:18:37.891Z,96.72
2023-01-18T13:21:12.649Z,92.90
2023-01-18T13:23:53.795Z,94.05
2023-01-18T13:26:29.430Z,91.79
2023-01-18T13:29:17.817Z,93.15
2023-01-18T13:31:46.125Z,93.66
2023-01-18T13:34:25.829Z,96.88
2023-01-18T13:37:02.533Z,96.28
2023-01-18T13:39:47.153Z,97.51
2023-01-18T13:42:36.917Z,97.99
2023-01-18T13:45:17.057Z,97.27
2023-01-18T13:47:53.818Z,96.70
2023-01-18T13:50:49.021Z,96.58
2023-01-18T13:53:49.318Z,95.37
2023-01-18T13:56:25.544Z,95.40
2023-01-18T13:58:56.462Z,93.92
2023-01-18T14:01:28.316Z,93.50
2023-01-18T14:03:56.579Z,92.67
2023-01-18T14:06:32.427Z,93.50
2023-01-18T14:09:05.864Z,93.12
2023-01-18T14:11:37.658Z,91.77
2023-01-18T14:14:22.846Z,90.07
2023-01-18T14:17:07.413Z,88.91
2023-01-18T14:19:57.449Z,89.10
2023-01-18T14:22:40.271Z,90.77
2023-01-18T14:25:29.582Z,93.19
2023-01-18T14:28:05.801Z,93.34
2023-01-18T14:30:36.438Z,95.72
2023-01-18T14:33:12.530Z,100.00
2023-01-18T14:35:40.432Z,100.00
2023-01-18T14:38:17.826Z,100.00
2023-01-18T14:40:48.531Z,100.00
2023-01-18T14:43:19.710Z,100.00
2023-01-18T14:45:55.216Z,100.00
2023-01-18T14:48:26.221Z,100.00
2023-01-18T14:50:56.650Z,100.00
2023-01-18T14:53:29.033Z,100.00
2023-01-18T14:56:09.041Z,100.00
2023-01-18T14:58:39.555Z,99.29
2023-01-18T15:01:09.555Z,99.17
2023-01-18T15:03:39.795Z,99.96
2023-01-18T15:06:13.882Z,100.00
2023-01-18T15:08:43.799Z,100.00
2023-01-18T15:11:13.132Z,100.00
2023-01-18T15:13:49.179Z,100.00
2023-01-18T15:16:19.024Z,100.00
2023-01-18T15:18:50.759Z,100.00
2023-01-18T15:21:23.208Z,100.00
2023-01-18T15:23:54.003Z,100.00
2023-01-18T15:26:35.360Z,100.00
2023-01-18T15:29:09.517Z,100.00
2023-01-18T15:31:45.762Z,100.00
2023-01-18T15:34:16.774Z,100.00
2023-01-18T15:36:45.736Z,100.00
2023-01-18T15:39:14.198Z,100.00
2023-01-18T15:41:43.655Z,100.00
2023-01-18T15:44:35.919Z,100.00
2023-01-18T15:47:15.544Z,100.00
2023-01-18T15:49:46.823Z,100.00
2023-01-18T15:52:15.126Z,100.00
2023-01-18T15:54:43.758Z,100.00
2023-01-18T15:57:14.043Z,100.00
2023-01-18T15:59:43.267Z,100.00
2023-01-18T16:02:18.870Z,100.00
2023-01-18T16:04:48.163Z,100.00
2023-01-18T16:07:35.768Z,100.00
2023-01-18T16:10:15.306Z,100.00
2023-01-18T16:12:43.385Z,100.00
2023-01-18T16:15:25.690Z,100.00
2023-01-18T16:17:58.513Z,100.00
2023-01-18T16:20:29.648Z,100.00
2023-01-18T16:23:06.899Z,100.00
2023-01-18T16:25:35.072Z,100.00
2023-01-18T16:28:04.115Z,100.00
2023-01-18T16:30:35.819Z,100.00
2023-01-18T16:33:10.709Z,100.00
2023-01-18T16:35:41.840Z,100.00
2023-01-18T16:38:12.304Z,100.00
2023-01-18T16:40:43.921Z,100.00
2023-01-18T16:43:23.121Z,100.00
2023-01-18T16:45:52.877Z,100.00
2023-01-18T16:48:22.898Z,100.00
2023-01-18T16:50:52.702Z,100.00
2023-01-18T16:53:20.861Z,100.00
2023-01-18T16:55:48.823Z,100.00
2023-01-18T16:58:18.289Z,100.00
2023-01-18T17:00:53.023Z,100.00
2023-01-18T17:03:20.877Z,100.00
2023-01-18T17:05:48.558Z,100.00
2023-01-18T17:08:18.180Z,100.00
2023-01-18T17:10:47.355Z,100.00
2023-01-18T17:13:15.546Z,99.61
2023-01-18T17:15:45.412Z,99.07
2023-01-18T17:18:15.917Z,99.52
2023-01-18T17:20:44.219Z,99.60
2023-01-18T17:23:12.090Z,100.00
2023-01-18T17:25:41.349Z,100.00
2023-01-18T17:28:09.742Z,99.97
2023-01-18T17:30:37.976Z,99.54
2023-01-18T17:33:05.777Z,100.00
2023-01-18T17:35:33.867Z,100.00
2023-01-18T17:38:11.316Z,100.00
2023-01-18T17:40:44.022Z,100.00
2023-01-18T17:43:15.148Z,100.00
2023-01-18T17:45:50.983Z,99.90
2023-01-18T17:48:26.204Z,100.00
2023-01-18T17:50:53.969Z,99.56
2023-01-18T17:53:21.659Z,98.56
2023-01-18T17:55:50.759Z,99.18
2023-01-18T17:58:18.459Z,98.57
2023-01-18T18:00:46.325Z,99.16
2023-01-18T18:03:14.292Z,99.12
2023-01-18T18:05:42.282Z,100.00
2023-01-18T18:08:10.321Z,99.53
2023-01-18T18:10:38.068Z,100.00
2023-01-18T18:13:07.290Z,100.00
2023-01-18T18:15:35.163Z,100.00
2023-01-18T18:18:04.085Z,100.00
2023-01-18T18:20:33.224Z,100.00
2023-01-18T18:23:01.298Z,100.00
2023-01-18T18:25:29.507Z,100.00
2023-01-18T18:27:57.288Z,100.00
2023-01-18T18:30:26.453Z,100.00
2023-01-18T18:32:54.170Z,99.54
2023-01-18T18:35:25.859Z,99.60
2023-01-18T18:37:55.447Z,98.74
2023-01-18T18:40:23.495Z,97.36
2023-01-18T18:43:06.809Z,97.10
2023-01-18T18:45:36.166Z,97.06
2023-01-18T18:48:04.143Z,95.19
2023-01-18T18:50:32.290Z,95.25
2023-01-18T18:53:00.682Z,95.83
2023-01-18T18:55:28.641Z,94.14
2023-01-18T18:57:56.803Z,95.16
2023-01-18T19:00:25.554Z,93.98
2023-01-18T19:02:58.674Z,95.56
2023-01-18T19:05:26.943Z,94.51
2023-01-18T19:07:54.702Z,94.90
2023-01-18T19:10:24.186Z,93.47
2023-01-18T19:12:51.931Z,94.31
2023-01-18T19:15:19.685Z,95.70
2023-01-18T19:17:49.688Z,94.35
2023-01-18T19:20:20.576Z,94.55
2023-01-18T19:22:48.361Z,94.82
2023-01-18T19:25:16.970Z,93.99
2023-01-18T19:27:45.229Z,94.22
2023-01-18T19:30:18.614Z,94.24
2023-01-18T19:32:47.631Z,94.11
2023-01-18T19:35:16.328Z,94.50
2023-01-18T19:37:45.683Z,92.50
2023-01-18T19:40:17.347Z,93.08
2023-01-18T19:42:47.037Z,96.90
2023-01-18T19:45:23.156Z,97.30
2023-01-18T19:47:55.811Z,98.19
2023-01-18T19:50:23.682Z,97.94
2023-01-18T19:52:53.507Z,98.97
2023-01-18T19:55:22.123Z,98.01
2023-01-18T19:57:50.962Z,98.93
2023-01-18T20:00:19.709Z,99.16
2023-01-18T20:02:47.500Z,99.03
2023-01-18T20:05:15.788Z,98.26
2023-01-18T20:07:43.578Z,98.21
2023-01-18T20:10:13.063Z,98.78
2023-01-18T20:12:40.818Z,98.69
2023-01-18T20:15:09.230Z,99.23
2023-01-18T20:17:37.034Z,98.24
2023-01-18T20:20:05.351Z,97.27
2023-01-18T20:22:33.065Z,97.93
2023-01-18T20:25:00.944Z,98.85
2023-01-18T20:27:30.027Z,98.88
2023-01-18T20:29:58.263Z,98.19
2023-01-18T20:32:26.150Z,98.32
2023-01-18T20:34:53.975Z,98.24
2023-01-18T20:37:21.760Z,96.67
2023-01-18T20:39:50.244Z,95.19
2023-01-18T20:42:18.419Z,96.20
2023-01-18T20:44:50.237Z,95.47
2023-01-18T20:47:18.106Z,94.95
2023-01-18T20:49:46.987Z,95.83
2023-01-18T20:52:14.818Z,95.32
2023-01-18T20:54:42.531Z,95.81
2023-01-18T20:57:10.594Z,96.22
2023-01-18T20:59:38.297Z,95.15
2023-01-18T21:02:07.839Z,94.96
2023-01-18T21:04:35.834Z,95.12
2023-01-18T21:07:03.551Z,94.42
2023-01-18T21:09:31.304Z,95.42
2023-01-18T21:11:59.571Z,96.20
2023-01-18T21:14:27.319Z,96.15
2023-01-18T21:16:55.207Z,98.54
2023-01-18T21:19:24.436Z,97.05
2023-01-18T21:21:52.191Z,97.79
2023-01-18T21:24:19.881Z,97.21
2023-01-18T21:26:47.704Z,96.45
2023-01-18T21:29:15.483Z,96.61
2023-01-18T21:31:43.358Z,95.41
2023-01-18T21:34:11.308Z,95.84
2023-01-18T21:36:40.411Z,96.06
2023-01-18T21:39:08.154Z,96.22
2023-01-18T21:41:53.235Z,96.99
2023-01-18T21:44:38.487Z,97.42
2023-01-18T21:47:06.303Z,99.10
2023-01-18T21:50:15.914Z,100.00
2023-01-18T21:52:58.401Z,100.00
2023-01-18T21:55:26.134Z,99.58
2023-01-18T21:58:07.780Z,98.84
2023-01-18T22:00:38.714Z,99.05
2023-01-18T22:03:06.869Z,100.00
2023-01-18T22:05:34.769Z,100.00
2023-01-18T22:08:03.858Z,99.77
2023-01-18T22:10:31.720Z,99.15
2023-01-18T22:12:59.457Z,98.60
2023-01-18T22:15:27.207Z,97.79
2023-01-18T22:17:54.947Z,97.73
2023-01-18T22:20:22.724Z,98.60
2023-01-18T22:22:50.550Z,99.38
2023-01-18T22:25:19.835Z,99.88
2023-01-18T22:27:47.586Z,100.00
2023-01-18T22:30:15.476Z,99.16
2023-01-18T22:32:43.259Z,100.00
2023-01-18T22:35:11.335Z,100.00
2023-01-18T22:37:39.099Z,100.00
2023-01-18T22:40:08.575Z,99.79
2023-01-18T22:42:37.778Z,100.00
2023-01-18T22:45:06.253Z,98.26
2023-01-18T22:47:34.020Z,97.15
2023-01-18T22:50:01.754Z,97.76
2023-01-18T22:52:29.554Z,97.15
2023-01-18T22:54:57.389Z,95.93
2023-01-18T22:57:25.123Z,97.58
2023-01-18T22:59:54.220Z,98.52
2023-01-18T23:02:22.032Z,96.68
2023-01-18T23:04:49.823Z,97.30
2023-01-18T23:07:17.645Z,97.26
2023-01-18T23:09:45.427Z,96.93
2023-01-18T23:12:13.247Z,96.00
2023-01-18T23:14:58.345Z,95.97
2023-01-18T23:17:39.763Z,95.78
2023-01-18T23:20:10.334Z,95.48
2023-01-18T23:22:38.526Z,97.42
2023-01-18T23:25:07.075Z,97.39
2023-01-18T23:27:35.324Z,96.47
2023-01-18T23:30:03.521Z,95.64
2023-01-18T23:32:32.841Z,95.95
2023-01-18T23:35:01.232Z,97.18
2023-01-18T23:37:29.428Z,96.02
2023-01-18T23:40:15.053Z,96.75
2023-01-18T23:43:00.505Z,98.64
2023-01-18T23:45:45.862Z,98.45
2023-01-18T23:48:34.752Z,97.25
2023-01-18T23:51:20.634Z,97.76
2023-01-18T23:54:05.758Z,96.49
2023-01-18T23:56:33.723Z,95.77
2023-01-18T23:59:02.384Z,95.75
